Time;durP1;ratioP1;P1;durP2;ratioP2;P2;SDS_P1;SDS_P2;PMS_P1;PMS_P2;Temp;Humidity;BMP_temperature;BMP_pressure;BME280_temperature;BME280_humidity;BME280_pressure;Samples;Min_cycle;Max_cycle;Signal;HPM_P1;HPM_P2
2022/10/31 00:01:12;;;;;;;75.65;41.53;;;;;;;13.07;100.00;101093.19;5109833;27;20410;-69
2022/10/31 00:03:37;;;;;;;73.60;39.33;;;;;;;13.05;100.00;101084.38;5109712;28;20110;-69
2022/10/31 00:06:02;;;;;;;77.18;39.30;;;;;;;12.98;100.00;101065.16;5108235;28;20035;-69
2022/10/31 00:08:28;;;;;;;79.50;38.67;;;;;;;13.08;100.00;101070.63;5107386;28;20024;-68
2022/10/31 00:10:53;;;;;;;71.18;37.03;;;;;;;13.07;100.00;101082.41;5110294;28;20077;-68
2022/10/31 00:13:19;;;;;;;76.50;39.42;;;;;;;13.08;100.00;101084.09;5109905;28;20034;-69
2022/10/31 00:15:44;;;;;;;62.75;35.13;;;;;;;13.05;100.00;101082.53;5110103;28;20451;-69
2022/10/31 00:18:10;;;;;;;75.22;37.55;;;;;;;13.08;100.00;101081.41;5105444;28;20355;-68
2022/10/31 00:20:36;;;;;;;67.65;36.50;;;;;;;13.03;100.00;101080.97;5097835;28;20032;-69
2022/10/31 00:23:03;;;;;;;64.40;36.33;;;;;;;12.92;100.00;101070.22;5104367;28;20020;-69
2022/10/31 00:25:34;;;;;;;65.18;35.50;;;;;;;12.98;100.00;101083.16;5104590;28;20070;-69
2022/10/31 00:27:59;;;;;;;64.68;35.67;;;;;;;12.96;100.00;101079.75;5103366;28;20394;-68
2022/10/31 00:30:24;;;;;;;61.92;34.63;;;;;;;12.97;100.00;101070.69;5103326;28;20049;-69
2022/10/31 00:32:50;;;;;;;67.85;36.10;;;;;;;12.95;100.00;101078.91;5101332;27;20028;-67
2022/10/31 00:35:15;;;;;;;61.20;33.75;;;;;;;12.95;100.00;101075.34;5103161;28;20039;-69
2022/10/31 00:37:41;;;;;;;66.28;33.22;;;;;;;12.93;100.00;101074.63;5100087;28;20026;-68
2022/10/31 00:40:07;;;;;;;61.15;32.03;;;;;;;12.91;100.00;101073.91;5100748;28;20023;-69
2022/10/31 00:42:32;;;;;;;62.47;33.83;;;;;;;12.89;100.00;101075.84;5101059;28;20036;-69
2022/10/31 00:44:57;;;;;;;62.15;32.58;;;;;;;12.87;100.00;101085.94;5100166;28;20027;-68
2022/10/31 00:47:23;;;;;;;60.08;32.35;;;;;;;12.89;100.00;101083.94;5101423;28;20027;-68
2022/10/31 00:49:48;;;;;;;55.13;30.35;;;;;;;12.92;100.00;101075.59;5100624;28;20283;-69
2022/10/31 00:52:14;;;;;;;49.83;29.05;;;;;;;12.88;100.00;101077.72;5101095;27;20019;-68
2022/10/31 00:54:39;;;;;;;49.58;27.98;;;;;;;12.89;100.00;101074.03;5101470;28;20498;-69
2022/10/31 00:57:04;;;;;;;49.78;27.55;;;;;;;12.86;100.00;101070.72;5104972;28;20027;-68
2022/10/31 00:59:30;;;;;;;51.22;27.20;;;;;;;12.83;100.00;101074.53;5100535;28;20027;-68
2022/10/31 01:01:55;;;;;;;45.35;25.00;;;;;;;12.79;100.00;101073.09;5100092;28;20046;-69
2022/10/31 01:04:21;;;;;;;47.35;26.50;;;;;;;12.77;100.00;101069.69;5097142;28;20026;-68
2022/10/31 01:06:47;;;;;;;45.97;25.20;;;;;;;12.76;100.00;101072.50;5104656;28;20038;-68
2022/10/31 01:09:12;;;;;;;51.90;29.20;;;;;;;12.66;100.00;101055.44;5098451;28;20032;-69
2022/10/31 01:11:38;;;;;;;53.40;29.30;;;;;;;12.73;100.00;101073.63;5099885;27;20577;-68
2022/10/31 01:14:03;;;;;;;48.08;27.58;;;;;;;12.75;100.00;101071.66;5101710;27;20023;-69
2022/10/31 01:16:31;;;;;;;53.03;27.20;;;;;;;12.78;100.00;101081.31;5101610;28;20123;-69
2022/10/31 01:18:57;;;;;;;48.00;27.42;;;;;;;12.75;100.00;101065.41;5108152;28;20027;-69
2022/10/31 01:21:25;;;;;;;44.42;25.98;;;;;;;12.77;100.00;101076.94;5107197;28;20024;-69
2022/10/31 01:23:53;;;;;;;50.78;26.27;;;;;;;12.79;100.00;101077.63;5108942;28;20031;-69
2022/10/31 01:26:21;;;;;;;48.22;27.08;;;;;;;12.80;100.00;101079.34;5108197;28;20059;-68
2022/10/31 01:28:52;;;;;;;45.17;25.77;;;;;;;12.76;100.00;101073.38;5108580;28;20514;-68
2022/10/31 01:31:20;;;;;;;49.30;26.92;;;;;;;12.72;100.00;101057.59;5108519;28;20095;-68
2022/10/31 01:33:46;;;;;;;48.38;26.10;;;;;;;12.76;100.00;101067.13;5109115;28;20035;-69
2022/10/31 01:36:18;;;;;;;46.70;26.45;;;;;;;12.77;100.00;101069.69;5107885;28;20032;-68
2022/10/31 01:38:44;;;;;;;48.83;26.13;;;;;;;12.76;100.00;101061.72;5107860;28;20055;-68
2022/10/31 01:41:12;;;;;;;48.70;26.95;;;;;;;12.76;100.00;101061.72;5107875;28;20142;-69
2022/10/31 01:43:57;;;;;;;46.20;26.10;;;;;;;12.76;100.00;101054.53;5108015;28;20047;-68
2022/10/31 01:46:51;;;;;;;52.67;28.27;;;;;;;12.77;100.00;101058.09;5108215;27;20045;-69
2022/10/31 01:49:21;;;;;;;54.00;29.52;;;;;;;12.76;100.00;101042.91;5108686;28;20106;-69
2022/10/31 01:51:54;;;;;;;54.25;30.17;;;;;;;12.76;100.00;101046.44;5108349;28;20042;-69
2022/10/31 01:54:25;;;;;;;56.00;30.27;;;;;;;12.82;100.00;101045.94;5106841;28;20035;-68
2022/10/31 01:56:55;;;;;;;55.70;29.50;;;;;;;12.75;100.00;101036.69;5107641;28;20026;-69
2022/10/31 01:59:23;;;;;;;53.40;28.40;;;;;;;12.81;100.00;101032.59;5107932;28;20031;-69
2022/10/31 02:01:50;;;;;;;51.70;29.45;;;;;;;12.76;100.00;101030.31;5107823;28;20341;-67
2022/10/31 02:04:17;;;;;;;54.25;28.80;;;;;;;12.80;100.00;101037.13;5107426;28;20042;-68
2022/10/31 02:06:56;;;;;;;52.83;28.33;;;;;;;12.80;100.00;101025.53;5107211;28;20031;-69
2022/10/31 02:09:23;;;;;;;53.20;27.48;;;;;;;12.65;100.00;101007.97;5108453;28;20456;-68
2022/10/31 02:11:54;;;;;;;50.95;28.05;;;;;;;12.80;100.00;101031.72;5108409;28;20114;-68
2022/10/31 02:14:25;;;;;;;46.75;26.40;;;;;;;12.76;100.00;101015.97;5108804;28;20035;-68
2022/10/31 02:16:50;;;;;;;49.63;26.77;;;;;;;12.79;100.00;101030.03;5108837;28;20773;-68
2022/10/31 02:19:49;;;;;;;48.45;27.00;;;;;;;12.73;100.00;101024.31;5106890;28;20118;-68
2022/10/31 02:22:37;;;;;;;47.88;25.55;;;;;;;12.81;100.00;101033.47;5090085;28;20474;-68
2022/10/31 02:25:16;;;;;;;45.78;25.65;;;;;;;12.77;100.00;101021.22;5108383;28;20031;-68
2022/10/31 02:28:06;;;;;;;42.22;23.60;;;;;;;12.80;100.00;101036.28;5107806;28;20088;-69
2022/10/31 02:31:16;;;;;;;43.70;23.80;;;;;;;12.63;100.00;101005.41;5106333;28;20622;-69
2022/10/31 02:33:57;;;;;;;39.97;23.38;;;;;;;12.68;100.00;101016.66;5087172;27;20143;-69
2022/10/31 02:36:51;;;;;;;41.58;24.17;;;;;;;12.71;100.00;101024.44;5107764;28;20482;-68
2022/10/31 02:39:21;;;;;;;44.58;24.40;;;;;;;12.70;100.00;101020.06;5108397;28;20027;-68
2022/10/31 02:42:24;;;;;;;47.15;26.05;;;;;;;12.68;100.00;101022.03;5106742;28;20036;-68
2022/10/31 02:45:02;;;;;;;45.95;26.20;;;;;;;12.68;100.00;101018.47;5108663;28;20055;-68
2022/10/31 02:47:33;;;;;;;45.53;24.92;;;;;;;12.68;100.00;101026.56;5108023;28;20043;-68
2022/10/31 02:50:13;;;;;;;49.67;26.83;;;;;;;12.65;100.00;101034.88;5108097;28;20045;-68
2022/10/31 02:52:39;;;;;;;45.65;26.25;;;;;;;12.68;100.00;101031.94;5107564;28;20030;-68
2022/10/31 02:55:10;;;;;;;49.92;27.95;;;;;;;12.67;100.00;101030.25;5107034;28;20027;-68
2022/10/31 02:57:40;;;;;;;54.10;29.45;;;;;;;12.66;100.00;101037.44;5091327;28;20028;-69
2022/10/31 03:00:08;;;;;;;53.17;28.65;;;;;;;12.68;100.00;101034.63;5107930;28;20103;-68
2022/10/31 03:03:20;;;;;;;50.90;28.38;;;;;;;12.70;100.00;101035.34;5107505;28;20035;-68
2022/10/31 03:06:18;;;;;;;52.95;28.58;;;;;;;12.67;100.00;101036.47;5044071;28;20113;-68
2022/10/31 03:08:43;;;;;;;53.65;29.65;;;;;;;12.68;100.00;101031.94;5063451;28;20040;-69
2022/10/31 03:11:09;;;;;;;53.67;30.02;;;;;;;12.60;100.00;101031.72;5112251;28;20374;-69
2022/10/31 03:13:44;;;;;;;50.20;27.80;;;;;;;12.67;100.00;101041.00;5111916;28;20485;-68
2022/10/31 03:16:23;;;;;;;63.38;30.15;;;;;;;12.64;100.00;101043.97;5112361;28;20587;-68
2022/10/31 03:18:53;;;;;;;56.92;30.00;;;;;;;12.62;100.00;101049.47;5112362;28;20023;-68
2022/10/31 03:21:29;;;;;;;55.85;30.20;;;;;;;12.47;100.00;101022.97;5111718;28;20020;-68
2022/10/31 03:23:57;;;;;;;55.55;29.23;;;;;;;12.60;100.00;101054.13;5112058;28;20475;-68
2022/10/31 03:26:24;;;;;;;57.80;29.85;;;;;;;12.57;100.00;101049.00;5111839;28;20114;-68
2022/10/31 03:29:04;;;;;;;58.55;30.63;;;;;;;12.62;100.00;101060.22;5111520;28;20043;-68
2022/10/31 03:31:37;;;;;;;58.40;29.92;;;;;;;12.63;100.00;101061.06;5111460;28;20704;-68
2022/10/31 03:34:05;;;;;;;59.08;30.38;;;;;;;12.64;100.00;101068.19;5110363;28;20057;-68
2022/10/31 03:36:35;;;;;;;54.33;28.63;;;;;;;12.62;100.00;101065.63;5110797;28;20020;-68
2022/10/31 03:39:04;;;;;;;56.08;29.38;;;;;;;12.55;100.00;101052.81;5110667;28;20082;-69
2022/10/31 03:41:34;;;;;;;54.05;28.85;;;;;;;12.62;100.00;101065.63;5109924;28;20051;-69
2022/10/31 03:44:06;;;;;;;49.65;28.08;;;;;;;12.57;100.00;101054.38;5111570;28;20046;-68
2022/10/31 03:46:31;;;;;;;50.42;27.58;;;;;;;12.54;100.00;101037.66;5111230;28;20123;-68
2022/10/31 03:48:58;;;;;;;50.17;29.17;;;;;;;12.60;100.00;101062.19;5111810;28;20110;-68
2022/10/31 03:51:30;;;;;;;46.28;27.38;;;;;;;12.57;100.00;101062.44;5111404;27;20751;-68
2022/10/31 03:54:12;;;;;;;47.58;27.92;;;;;;;12.57;100.00;101066.97;5111974;28;20055;-69
2022/10/31 03:56:44;;;;;;;48.58;27.10;;;;;;;12.57;100.00;101075.03;5110332;28;20250;-68
2022/10/31 03:59:40;;;;;;;46.72;26.45;;;;;;;12.51;100.00;101064.81;5111370;27;20027;-68
2022/10/31 04:02:11;;;;;;;49.70;27.40;;;;;;;12.55;100.00;101075.19;5109335;28;20100;-67
2022/10/31 04:04:37;;;;;;;47.83;26.10;;;;;;;12.49;100.00;101069.47;5110456;28;20466;-67
2022/10/31 04:07:05;;;;;;;42.45;25.58;;;;;;;12.47;100.00;101072.28;5110898;28;20032;-68
2022/10/31 04:09:34;;;;;;;40.63;24.42;;;;;;;12.47;100.00;101076.78;5110551;28;20138;-68
2022/10/31 04:12:03;;;;;;;43.60;25.58;;;;;;;12.42;100.00;101073.66;5109212;28;20437;-68
2022/10/31 04:14:32;;;;;;;46.28;24.23;;;;;;;12.43;100.00;101072.66;5104973;28;20028;-69
2022/10/31 04:16:59;;;;;;;43.97;24.67;;;;;;;12.35;100.00;101056.31;5101058;28;20035;-68
2022/10/31 04:19:24;;;;;;;44.70;24.60;;;;;;;12.39;100.00;101065.84;5100056;28;20035;-69
2022/10/31 04:21:49;;;;;;;38.55;22.60;;;;;;;12.31;100.00;101054.84;5099625;28;20028;-69
2022/10/31 04:24:15;;;;;;;42.50;23.52;;;;;;;12.35;100.00;101065.22;5103015;28;20023;-69
2022/10/31 04:26:40;;;;;;;45.78;24.65;;;;;;;12.33;100.00;101067.19;5104278;28;20455;-69
2022/10/31 04:29:06;;;;;;;40.20;22.88;;;;;;;12.18;100.00;101038.00;5101343;28;20024;-69
2022/10/31 04:31:31;;;;;;;42.60;25.25;;;;;;;12.27;100.00;101058.78;5106019;28;20462;-69
2022/10/31 04:33:56;;;;;;;44.88;24.33;;;;;;;12.34;100.00;101068.03;5102942;28;20051;-69
2022/10/31 04:36:22;;;;;;;48.38;26.40;;;;;;;12.33;100.00;101074.41;5105023;28;20068;-69
2022/10/31 04:38:47;;;;;;;48.88;25.60;;;;;;;12.31;100.00;101066.47;5101692;28;20471;-69
2022/10/31 04:41:13;;;;;;;50.95;27.15;;;;;;;12.29;100.00;101072.97;5104461;28;20039;-69
2022/10/31 04:43:38;;;;;;;47.05;27.05;;;;;;;12.27;100.00;101070.41;5100345;28;20024;-68
2022/10/31 04:46:04;;;;;;;47.95;26.85;;;;;;;12.34;100.00;101076.97;5102211;28;20027;-69
2022/10/31 04:48:29;;;;;;;48.88;26.05;;;;;;;12.37;100.00;101084.78;5098358;28;20024;-69
2022/10/31 04:51:01;;;;;;;42.95;25.48;;;;;;;12.35;100.00;101073.28;5099090;28;20036;-68
2022/10/31 04:53:27;;;;;;;50.72;27.58;;;;;;;12.34;100.00;101082.34;5100421;28;20027;-69
2022/10/31 04:55:53;;;;;;;50.95;27.70;;;;;;;12.31;100.00;101076.34;5098468;28;20384;-69
2022/10/31 04:58:18;;;;;;;47.40;26.65;;;;;;;12.29;100.00;101079.19;5106861;28;20534;-68
2022/10/31 05:00:44;;;;;;;47.13;26.83;;;;;;;12.31;100.00;101095.19;5100701;28;20139;-70
2022/10/31 05:03:09;;;;;;;44.90;26.35;;;;;;;12.30;100.00;101088.09;5101125;28;20377;-69
2022/10/31 05:05:34;;;;;;;48.00;27.33;;;;;;;12.27;100.00;101081.16;5101269;28;20024;-69
2022/10/31 05:08:00;;;;;;;44.67;25.27;;;;;;;12.25;100.00;101088.47;5101016;28;20073;-69
2022/10/31 05:10:29;;;;;;;43.05;24.75;;;;;;;12.27;100.00;101081.16;5103433;28;20055;-68
2022/10/31 05:12:57;;;;;;;45.30;25.50;;;;;;;12.26;100.00;101092.03;5099909;28;20024;-68
2022/10/31 05:15:25;;;;;;;41.28;24.55;;;;;;;12.25;100.00;101093.88;5101434;28;20036;-68
2022/10/31 05:17:51;;;;;;;44.33;25.48;;;;;;;12.18;100.00;101091.81;5098803;28;20028;-69
2022/10/31 05:20:19;;;;;;;45.88;26.58;;;;;;;12.21;100.00;101102.31;5101429;28;20092;-69
2022/10/31 05:22:46;;;;;;;49.38;26.80;;;;;;;12.21;100.00;101099.63;5099962;28;20019;-69
2022/10/31 05:25:12;;;;;;;44.40;23.90;;;;;;;12.15;100.00;101100.97;5101427;28;20039;-69
2022/10/31 05:27:42;;;;;;;45.25;25.48;;;;;;;12.18;100.00;101103.44;5094369;28;20486;-68
2022/10/31 05:30:09;;;;;;;46.65;25.48;;;;;;;12.22;100.00;101112.09;5105190;27;20058;-69
2022/10/31 05:32:39;;;;;;;44.95;25.00;;;;;;;12.20;100.00;101119.44;5098905;28;20027;-68
2022/10/31 05:35:09;;;;;;;42.45;25.15;;;;;;;12.21;100.00;101116.63;5102505;28;20417;-68
2022/10/31 05:37:35;;;;;;;45.83;26.33;;;;;;;12.22;100.00;101122.88;5103799;28;20027;-68
2022/10/31 05:40:02;;;;;;;43.72;25.30;;;;;;;12.17;100.00;101117.00;5100758;27;20054;-68
2022/10/31 05:42:28;;;;;;;40.70;24.33;;;;;;;12.11;100.00;101110.28;5100802;28;20043;-68
2022/10/31 05:44:53;;;;;;;39.15;23.00;;;;;;;12.20;100.00;101122.13;5104525;28;20020;-68
2022/10/31 05:47:18;;;;;;;41.78;25.00;;;;;;;12.18;100.00;101124.06;5099538;28;20038;-69
2022/10/31 05:49:44;;;;;;;38.03;22.65;;;;;;;12.13;100.00;101120.91;5099691;28;20098;-68
2022/10/31 05:52:09;;;;;;;37.90;23.45;;;;;;;12.14;100.00;101119.94;5099653;28;20022;-68
2022/10/31 05:54:34;;;;;;;40.25;22.92;;;;;;;12.17;100.00;101117.00;5097000;28;20024;-68
2022/10/31 05:57:00;;;;;;;44.47;24.23;;;;;;;12.18;100.00;101114.19;5107154;28;20092;-69
2022/10/31 05:59:25;;;;;;;38.72;23.98;;;;;;;12.15;100.00;101111.75;5108710;28;20039;-69
2022/10/31 06:01:51;;;;;;;37.92;22.85;;;;;;;12.13;100.00;101110.16;5108204;28;20051;-68
2022/10/31 06:04:16;;;;;;;39.28;23.17;;;;;;;12.17;100.00;101122.38;5108532;28;20027;-69
2022/10/31 06:06:41;;;;;;;39.25;22.83;;;;;;;12.13;100.00;101121.78;5108107;28;20074;-69
2022/10/31 06:09:07;;;;;;;38.53;22.50;;;;;;;12.18;100.00;101124.06;5108524;28;20062;-69
2022/10/31 06:11:32;;;;;;;33.97;21.63;;;;;;;12.14;100.00;101123.50;5108826;28;20030;-69
2022/10/31 06:13:58;;;;;;;38.33;23.60;;;;;;;12.19;100.00;101123.13;5107884;28;20378;-69
2022/10/31 06:16:23;;;;;;;39.63;22.75;;;;;;;12.20;100.00;101135.56;5107467;28;20096;-68
2022/10/31 06:18:48;;;;;;;40.35;23.23;;;;;;;12.18;100.00;101135.69;5108993;28;20128;-69
2022/10/31 06:21:14;;;;;;;40.58;23.33;;;;;;;12.17;100.00;101128.63;5108782;28;20031;-69
2022/10/31 06:23:39;;;;;;;40.88;23.75;;;;;;;12.19;100.00;101136.56;5104053;28;20088;-68
2022/10/31 06:26:05;;;;;;;41.85;24.42;;;;;;;12.17;100.00;101142.06;5107255;27;20039;-69
2022/10/31 06:28:30;;;;;;;40.78;23.65;;;;;;;12.13;100.00;101135.22;5105854;28;20028;-69
2022/10/31 06:30:56;;;;;;;41.50;24.65;;;;;;;12.19;100.00;101147.31;5107137;28;20063;-69
2022/10/31 06:33:21;;;;;;;38.05;22.30;;;;;;;12.12;100.00;101133.50;5095248;27;20106;-69
2022/10/31 06:35:47;;;;;;;39.63;22.95;;;;;;;12.21;100.00;101148.91;5104048;28;20554;-70
2022/10/31 06:38:13;;;;;;;36.50;22.10;;;;;;;12.23;100.00;101154.16;5095064;28;20031;-69
2022/10/31 06:40:38;;;;;;;37.90;23.20;;;;;;;12.13;100.00;101132.53;5103853;28;20402;-68
2022/10/31 06:43:04;;;;;;;38.65;22.80;;;;;;;12.16;100.00;101140.34;5102145;28;20020;-69
2022/10/31 06:45:29;;;;;;;38.28;21.60;;;;;;;12.23;100.00;101151.47;5100465;28;20040;-68
2022/10/31 06:47:56;;;;;;;38.25;21.55;;;;;;;12.24;100.00;101145.09;5106212;28;20125;-69
2022/10/31 06:50:22;;;;;;;40.08;23.17;;;;;;;12.24;100.00;101142.41;5103764;28;20019;-69
2022/10/31 06:52:55;;;;;;;39.42;23.10;;;;;;;12.20;100.00;101127.50;5103931;28;20032;-69
2022/10/31 06:55:22;;;;;;;38.00;22.60;;;;;;;12.28;100.00;101133.97;5093563;28;20023;-69
2022/10/31 06:57:56;;;;;;;41.15;24.45;;;;;;;12.29;100.00;101135.66;5097480;28;20122;-68
2022/10/31 07:00:22;;;;;;;41.65;24.80;;;;;;;12.28;100.00;101136.66;5104897;28;20081;-69
2022/10/31 07:02:59;;;;;;;39.72;23.17;;;;;;;12.33;100.00;101147.03;5105511;28;20058;-69
2022/10/31 07:05:25;;;;;;;38.20;23.42;;;;;;;12.32;100.00;101138.09;5105594;28;20039;-70
2022/10/31 07:07:55;;;;;;;34.47;21.23;;;;;;;12.34;100.00;101130.78;5104557;28;20119;-69
2022/10/31 07:10:22;;;;;;;34.67;23.10;;;;;;;12.29;100.00;101132.97;5106583;28;20023;-69
2022/10/31 07:12:48;;;;;;;33.17;22.40;;;;;;;12.36;100.00;101144.97;5103207;28;20047;-69
2022/10/31 07:15:13;;;;;;;35.97;23.17;;;;;;;12.38;100.00;101142.97;5106329;28;20031;-70
2022/10/31 07:17:39;;;;;;;34.95;20.77;;;;;;;12.40;100.00;101141.03;5104122;28;20046;-69
2022/10/31 07:20:05;;;;;;;32.40;20.27;;;;;;;12.40;100.00;101149.09;5105807;28;20020;-69
2022/10/31 07:22:37;;;;;;;33.25;20.15;;;;;;;12.40;100.00;101150.94;5104586;28;20514;-69
2022/10/31 07:25:03;;;;;;;33.63;20.42;;;;;;;12.38;100.00;101147.53;5093659;28;20062;-69
2022/10/31 07:27:28;;;;;;;31.00;19.27;;;;;;;12.39;100.00;101149.22;5103430;28;20032;-69
2022/10/31 07:29:54;;;;;;;26.38;18.15;;;;;;;12.31;100.00;101136.41;5106351;28;20031;-68
2022/10/31 07:32:19;;;;;;;28.35;18.65;;;;;;;12.39;100.00;101147.41;5099342;28;20028;-68
2022/10/31 07:34:44;;;;;;;29.40;18.52;;;;;;;12.39;100.00;101149.22;5101409;28;20027;-69
2022/10/31 07:37:10;;;;;;;35.17;21.30;;;;;;;12.29;100.00;101121.38;5096802;28;20074;-69
2022/10/31 07:39:35;;;;;;;31.40;19.83;;;;;;;12.36;100.00;101136.03;5098305;28;20024;-69
2022/10/31 07:42:01;;;;;;;32.13;20.67;;;;;;;12.38;100.00;101134.91;5098904;28;20386;-69
2022/10/31 07:44:26;;;;;;;31.45;20.55;;;;;;;12.35;100.00;101128.94;5096690;28;20032;-69
2022/10/31 07:46:51;;;;;;;37.53;22.42;;;;;;;12.40;100.00;101134.78;5098950;28;20415;-69
2022/10/31 07:49:17;;;;;;;35.03;21.35;;;;;;;12.42;100.00;101147.16;5098364;28;20505;-70
2022/10/31 07:51:42;;;;;;;32.25;20.80;;;;;;;12.45;100.00;101148.72;5098918;28;20026;-70
2022/10/31 07:54:08;;;;;;;33.67;20.65;;;;;;;12.37;100.00;101132.34;5101090;28;20026;-70
2022/10/31 07:56:33;;;;;;;32.28;19.88;;;;;;;12.39;100.00;101135.78;5103616;28;20034;-69
2022/10/31 07:58:58;;;;;;;38.03;20.92;;;;;;;12.42;100.00;101151.66;5111388;28;20089;-69
2022/10/31 08:01:24;;;;;;;37.47;21.13;;;;;;;12.42;100.00;101157.06;5109466;28;20058;-69
2022/10/31 08:03:49;;;;;;;32.72;20.63;;;;;;;12.46;100.00;101163.88;5110863;28;20044;-69
2022/10/31 08:06:15;;;;;;;35.17;22.15;;;;;;;12.31;100.00;101141.78;5110911;28;20042;-68
2022/10/31 08:08:40;;;;;;;32.83;20.67;;;;;;;12.42;100.00;101163.31;5110846;27;20034;-69
2022/10/31 08:11:05;;;;;;;33.30;21.65;;;;;;;12.44;100.00;101169.38;5109459;27;20038;-69
2022/10/31 08:13:31;;;;;;;34.35;21.70;;;;;;;12.45;100.00;101172.94;5108105;28;20028;-69
2022/10/31 08:16:03;;;;;;;38.47;22.20;;;;;;;12.41;100.00;101149.97;5108559;28;20108;-69
2022/10/31 08:18:28;;;;;;;31.45;20.95;;;;;;;12.45;100.00;101162.19;5109995;28;20111;-69
2022/10/31 08:20:54;;;;;;;35.72;21.83;;;;;;;12.44;100.00;101160.44;5109327;28;20102;-69
2022/10/31 08:23:19;;;;;;;35.33;21.65;;;;;;;12.46;100.00;101166.56;5110220;28;20025;-69
2022/10/31 08:25:46;;;;;;;34.17;20.80;;;;;;;12.40;100.00;101159.00;5109456;28;20050;-69
2022/10/31 08:28:13;;;;;;;33.67;21.33;;;;;;;12.45;100.00;101170.25;5110485;28;20029;-69
2022/10/31 08:30:39;;;;;;;34.95;21.83;;;;;;;12.44;100.00;101174.78;5109433;28;20019;-68
2022/10/31 08:33:11;;;;;;;38.80;22.98;;;;;;;12.46;100.00;101171.94;5109864;28;20088;-69
2022/10/31 08:35:37;;;;;;;34.25;21.75;;;;;;;12.48;100.00;101170.00;5109344;28;20031;-69
2022/10/31 08:38:03;;;;;;;36.55;22.33;;;;;;;12.46;100.00;101166.56;5108190;28;20034;-69
2022/10/31 08:40:30;;;;;;;32.95;21.92;;;;;;;12.51;100.00;101169.75;5109194;28;20055;-69
2022/10/31 08:43:04;;;;;;;34.50;20.45;;;;;;;12.54;100.00;101164.13;5098020;28;20107;-69
2022/10/31 08:45:31;;;;;;;35.50;21.60;;;;;;;12.55;100.00;101176.59;5107782;28;20474;-69
2022/10/31 08:48:01;;;;;;;28.15;17.70;;;;;;;12.53;100.00;101179.41;5110025;28;20035;-68
2022/10/31 08:50:29;;;;;;;29.92;18.60;;;;;;;12.57;100.00;101180.00;5107812;28;20027;-68
2022/10/31 08:53:00;;;;;;;29.20;18.30;;;;;;;12.49;100.00;101182.47;5109493;28;20058;-69
2022/10/31 08:55:25;;;;;;;28.00;18.80;;;;;;;12.53;100.00;101183.91;5096163;27;20026;-69
2022/10/31 08:57:57;;;;;;;26.85;18.02;;;;;;;12.52;100.00;101185.78;5109143;27;20027;-68
2022/10/31 09:00:24;;;;;;;27.33;16.27;;;;;;;12.59;100.00;101191.50;5106126;27;20050;-68
2022/10/31 09:02:55;;;;;;;29.23;18.70;;;;;;;12.52;100.00;101175.00;5103967;28;20100;-69
2022/10/31 09:05:21;;;;;;;29.38;17.00;;;;;;;12.56;100.00;101180.97;5096008;28;20032;-69
2022/10/31 09:07:46;;;;;;;27.65;16.55;;;;;;;12.55;100.00;101192.72;5106082;28;20023;-69
2022/10/31 09:10:11;;;;;;;27.45;18.05;;;;;;;12.49;100.00;101191.41;5108306;28;20039;-69
2022/10/31 09:12:37;;;;;;;22.60;15.90;;;;;;;12.51;100.00;101191.28;5104827;28;20023;-69
2022/10/31 09:15:02;;;;;;;23.08;16.95;;;;;;;12.48;100.00;101196.91;5109970;28;20027;-69
2022/10/31 09:17:28;;;;;;;25.92;17.50;;;;;;;12.49;100.00;101195.91;5109032;28;20035;-69
2022/10/31 09:19:54;;;;;;;25.33;17.73;;;;;;;12.42;100.00;101187.50;5109438;28;20023;-68
2022/10/31 09:22:20;;;;;;;29.55;18.77;;;;;;;12.45;100.00;101181.84;5104617;27;20689;-69
2022/10/31 09:24:45;;;;;;;29.65;18.80;;;;;;;12.44;100.00;101184.66;5108449;28;20024;-68
2022/10/31 09:27:11;;;;;;;33.25;20.23;;;;;;;12.49;100.00;101185.16;5108085;27;20106;-69
2022/10/31 09:29:36;;;;;;;30.60;19.33;;;;;;;12.49;100.00;101191.41;5107390;28;20020;-68
2022/10/31 09:32:01;;;;;;;31.40;19.80;;;;;;;12.38;100.00;101161.81;5096982;28;20027;-69
2022/10/31 09:34:27;;;;;;;34.35;19.65;;;;;;;12.57;100.00;101190.75;5094542;28;20040;-68
2022/10/31 09:36:53;;;;;;;32.65;19.55;;;;;;;12.60;100.00;101188.69;5094286;28;20482;-68
2022/10/31 09:39:18;;;;;;;30.80;19.33;;;;;;;12.62;100.00;101189.41;5108012;28;20036;-68
2022/10/31 09:41:53;;;;;;;30.92;19.73;;;;;;;12.63;100.00;101180.34;5107807;28;20026;-69
2022/10/31 09:44:44;;;;;;;32.13;20.63;;;;;;;12.65;100.00;101177.53;5107968;28;20023;-69
2022/10/31 09:47:28;;;;;;;32.55;20.33;;;;;;;12.67;100.00;101191.72;5101847;28;20505;-69
2022/10/31 09:49:59;;;;;;;30.08;19.77;;;;;;;12.66;100.00;101182.78;5096309;27;20020;-69
2022/10/31 09:52:34;;;;;;;30.70;19.65;;;;;;;12.65;100.00;101174.84;5117372;27;20035;-68
2022/10/31 09:55:36;;;;;;;32.28;21.27;;;;;;;12.74;100.00;101187.53;5117890;27;20420;-69
2022/10/31 09:58:02;;;;;;;32.35;20.20;;;;;;;12.77;100.00;101193.50;5104384;27;20044;-68
2022/10/31 10:00:28;;;;;;;31.63;19.80;;;;;;;12.78;100.00;101172.84;5116511;27;20027;-69
2022/10/31 10:03:29;;;;;;;32.80;20.90;;;;;;;12.88;100.00;101189.94;5118596;27;20027;-69
2022/10/31 10:06:14;;;;;;;31.20;19.70;;;;;;;12.98;100.00;101185.47;5086732;28;20035;-69
2022/10/31 10:08:39;;;;;;;27.90;18.15;;;;;;;12.95;100.00;101183.06;5107283;28;20027;-69
2022/10/31 10:11:17;;;;;;;29.13;18.60;;;;;;;12.87;100.00;101183.69;5108520;28;20081;-69
2022/10/31 10:14:00;;;;;;;30.25;19.73;;;;;;;12.85;100.00;101185.66;5105317;27;20038;-68
2022/10/31 10:16:47;;;;;;;32.45;21.15;;;;;;;12.82;100.00;101179.66;5104456;28;20051;-68
2022/10/31 10:19:40;;;;;;;39.55;24.98;;;;;;;12.81;100.00;101183.34;5106872;28;20596;-68
2022/10/31 10:22:50;;;;;;;41.88;25.17;;;;;;;12.81;100.00;101173.44;5106059;28;20039;-68
2022/10/31 10:25:20;;;;;;;37.45;23.08;;;;;;;12.85;100.00;101171.34;5097555;27;20040;-68
2022/10/31 10:27:57;;;;;;;36.50;21.67;;;;;;;12.87;100.00;101172.06;5095460;27;20363;-68
2022/10/31 10:30:35;;;;;;;36.03;22.80;;;;;;;12.90;100.00;101172.66;5099391;28;20080;-68
2022/10/31 10:33:08;;;;;;;37.97;23.88;;;;;;;12.94;100.00;101170.56;5104617;27;20027;-68
2022/10/31 10:35:38;;;;;;;32.20;20.85;;;;;;;12.95;100.00;101174.97;5103927;27;20027;-67
2022/10/31 10:38:15;;;;;;;34.50;20.17;;;;;;;12.98;100.00;101169.34;5105924;27;20076;-68
2022/10/31 10:40:41;;;;;;;29.83;19.17;;;;;;;12.86;100.00;101149.69;5106195;28;20057;-68
2022/10/31 10:43:24;;;;;;;30.75;20.95;;;;;;;12.98;100.00;101164.81;5099341;28;20080;-67
2022/10/31 10:48:55;;;;;;;31.98;22.38;;;;;;;13.00;100.00;101167.41;5090939;28;20080;-68
2022/10/31 10:51:39;;;;;;;31.00;21.10;;;;;;;12.98;100.00;101166.63;5093692;28;20030;-63
2022/10/31 10:54:28;;;;;;;33.38;21.73;;;;;;;13.01;100.00;101161.03;5099922;28;20031;-63
2022/10/31 10:57:02;;;;;;;30.52;19.90;;;;;;;13.04;100.00;101167.03;5100877;28;20102;-63
2022/10/31 10:59:29;;;;;;;31.02;19.70;;;;;;;13.05;100.00;101163.34;5103648;28;20604;-64
2022/10/31 11:01:55;;;;;;;30.15;19.60;;;;;;;12.96;100.00;101147.09;5100263;28;20101;-63
2022/10/31 11:04:31;;;;;;;30.25;20.05;;;;;;;13.11;100.00;101168.22;5095344;28;20051;-63
2022/10/31 11:07:08;;;;;;;28.02;18.73;;;;;;;13.11;100.00;101167.34;5099428;28;20036;-64
2022/10/31 11:09:35;;;;;;;32.28;18.30;;;;;;;13.04;100.00;101153.56;5105555;28;20490;-63
2022/10/31 11:12:08;;;;;;;32.75;21.05;;;;;;;13.11;100.00;101165.50;5104981;28;20630;-63
2022/10/31 11:14:44;;;;;;;30.63;18.63;;;;;;;13.13;100.00;101162.69;5104704;28;20040;-63
2022/10/31 11:17:17;;;;;;;29.15;17.80;;;;;;;13.13;100.00;101152.75;5097898;28;20037;-64